sensor_id;sensor_type;location;lat;lon;timestamp;P1;durP1;ratioP1;P2;durP2;ratioP2
56122;SDS011;42426;46.104;19.656;2023-04-25T00:01:33;50.10;;;29.77;;
56122;SDS011;42426;46.104;19.656;2023-04-25T00:04:01;43.53;;;25.40;;
56122;SDS011;42426;46.104;19.656;2023-04-25T00:06:29;34.65;;;21.73;;
56122;SDS011;42426;46.104;19.656;2023-04-25T00:08:56;42.20;;;22.65;;
56122;SDS011;42426;46.104;19.656;2023-04-25T00:11:22;31.35;;;19.02;;
56122;SDS011;42426;46.104;19.656;2023-04-25T00:13:49;27.25;;;17.02;;
56122;SDS011;42426;46.104;19.656;2023-04-25T00:16:17;24.55;;;15.32;;
56122;SDS011;42426;46.104;19.656;2023-04-25T00:18:43;31.58;;;18.23;;
56122;SDS011;42426;46.104;19.656;2023-04-25T00:21:11;60.25;;;27.92;;
56122;SDS011;42426;46.104;19.656;2023-04-25T00:23:37;35.60;;;19.70;;
56122;SDS011;42426;46.104;19.656;2023-04-25T00:26:04;24.35;;;14.60;;
56122;SDS011;42426;46.104;19.656;2023-04-25T00:28:30;16.70;;;11.13;;
56122;SDS011;42426;46.104;19.656;2023-04-25T00:30:56;15.77;;;10.93;;
56122;SDS011;42426;46.104;19.656;2023-04-25T00:33:22;26.13;;;16.70;;
56122;SDS011;42426;46.104;19.656;2023-04-25T00:35:47;19.67;;;12.73;;
56122;SDS011;42426;46.104;19.656;2023-04-25T00:38:13;16.73;;;11.70;;
56122;SDS011;42426;46.104;19.656;2023-04-25T00:40:39;22.08;;;13.82;;
56122;SDS011;42426;46.104;19.656;2023-04-25T00:43:08;18.45;;;12.88;;
56122;SDS011;42426;46.104;19.656;2023-04-25T00:45:34;16.17;;;10.38;;
56122;SDS011;42426;46.104;19.656;2023-04-25T00:48:04;12.73;;;8.75;;
56122;SDS011;42426;46.104;19.656;2023-04-25T00:50:30;11.52;;;7.22;;
56122;SDS011;42426;46.104;19.656;2023-04-25T00:52:57;11.07;;;7.63;;
56122;SDS011;42426;46.104;19.656;2023-04-25T00:55:23;10.82;;;7.32;;
56122;SDS011;42426;46.104;19.656;2023-04-25T00:57:48;13.93;;;9.00;;
56122;SDS011;42426;46.104;19.656;2023-04-25T01:00:15;12.38;;;7.85;;
56122;SDS011;42426;46.104;19.656;2023-04-25T01:02:41;12.43;;;8.13;;
56122;SDS011;42426;46.104;19.656;2023-04-25T01:05:08;13.00;;;8.82;;
56122;SDS011;42426;46.104;19.656;2023-04-25T01:07:34;15.98;;;10.45;;
56122;SDS011;42426;46.104;19.656;2023-04-25T01:10:00;16.83;;;11.35;;
56122;SDS011;42426;46.104;19.656;2023-04-25T01:12:26;16.20;;;10.88;;
56122;SDS011;42426;46.104;19.656;2023-04-25T01:14:52;24.55;;;13.32;;
56122;SDS011;42426;46.104;19.656;2023-04-25T01:17:18;40.92;;;23.30;;
56122;SDS011;42426;46.104;19.656;2023-04-25T01:19:44;28.45;;;19.77;;
56122;SDS011;42426;46.104;19.656;2023-04-25T01:22:14;28.05;;;18.95;;
56122;SDS011;42426;46.104;19.656;2023-04-25T01:24:40;19.95;;;15.07;;
56122;SDS011;42426;46.104;19.656;2023-04-25T01:27:08;17.02;;;12.63;;
56122;SDS011;42426;46.104;19.656;2023-04-25T01:29:34;14.68;;;11.45;;
56122;SDS011;42426;46.104;19.656;2023-04-25T01:32:01;14.98;;;11.20;;
56122;SDS011;42426;46.104;19.656;2023-04-25T01:34:26;11.00;;;8.95;;
56122;SDS011;42426;46.104;19.656;2023-04-25T01:36:52;13.82;;;9.90;;
56122;SDS011;42426;46.104;19.656;2023-04-25T01:39:18;13.75;;;10.70;;
56122;SDS011;42426;46.104;19.656;2023-04-25T01:41:45;14.88;;;10.13;;
56122;SDS011;42426;46.104;19.656;2023-04-25T01:44:12;12.98;;;10.10;;
56122;SDS011;42426;46.104;19.656;2023-04-25T01:46:38;12.93;;;8.77;;
56122;SDS011;42426;46.104;19.656;2023-04-25T01:49:06;12.77;;;9.60;;
56122;SDS011;42426;46.104;19.656;2023-04-25T01:51:31;12.32;;;9.80;;
56122;SDS011;42426;46.104;19.656;2023-04-25T01:53:58;12.23;;;9.38;;
56122;SDS011;42426;46.104;19.656;2023-04-25T01:56:24;12.52;;;9.35;;
56122;SDS011;42426;46.104;19.656;2023-04-25T01:58:50;10.45;;;8.07;;
56122;SDS011;42426;46.104;19.656;2023-04-25T02:01:17;10.52;;;9.00;;
56122;SDS011;42426;46.104;19.656;2023-04-25T02:03:43;12.18;;;8.82;;
56122;SDS011;42426;46.104;19.656;2023-04-25T02:06:09;10.63;;;8.48;;
56122;SDS011;42426;46.104;19.656;2023-04-25T02:08:35;10.55;;;9.38;;
56122;SDS011;42426;46.104;19.656;2023-04-25T02:11:02;9.57;;;7.43;;
56122;SDS011;42426;46.104;19.656;2023-04-25T02:13:29;11.30;;;8.43;;
56122;SDS011;42426;46.104;19.656;2023-04-25T02:15:55;7.60;;;6.30;;
56122;SDS011;42426;46.104;19.656;2023-04-25T02:18:21;10.90;;;7.97;;
56122;SDS011;42426;46.104;19.656;2023-04-25T02:20:48;8.63;;;6.65;;
56122;SDS011;42426;46.104;19.656;2023-04-25T02:23:15;10.65;;;6.28;;
56122;SDS011;42426;46.104;19.656;2023-04-25T02:25:44;9.80;;;6.95;;
56122;SDS011;42426;46.104;19.656;2023-04-25T02:28:10;8.15;;;6.10;;
56122;SDS011;42426;46.104;19.656;2023-04-25T02:30:36;6.40;;;5.70;;
56122;SDS011;42426;46.104;19.656;2023-04-25T02:33:02;10.70;;;6.68;;
56122;SDS011;42426;46.104;19.656;2023-04-25T02:35:28;15.43;;;6.75;;
56122;SDS011;42426;46.104;19.656;2023-04-25T02:37:54;9.05;;;6.55;;
56122;SDS011;42426;46.104;19.656;2023-04-25T02:40:20;8.45;;;6.20;;
56122;SDS011;42426;46.104;19.656;2023-04-25T02:42:47;8.73;;;5.93;;
56122;SDS011;42426;46.104;19.656;2023-04-25T02:45:15;8.25;;;5.63;;
56122;SDS011;42426;46.104;19.656;2023-04-25T02:47:41;8.85;;;5.93;;
56122;SDS011;42426;46.104;19.656;2023-04-25T02:50:13;8.10;;;6.93;;
56122;SDS011;42426;46.104;19.656;2023-04-25T02:52:39;7.82;;;6.28;;
56122;SDS011;42426;46.104;19.656;2023-04-25T02:55:07;7.15;;;5.70;;
56122;SDS011;42426;46.104;19.656;2023-04-25T02:57:33;7.72;;;5.72;;
56122;SDS011;42426;46.104;19.656;2023-04-25T03:00:00;8.82;;;6.95;;
56122;SDS011;42426;46.104;19.656;2023-04-25T03:02:26;10.95;;;8.20;;
56122;SDS011;42426;46.104;19.656;2023-04-25T03:04:52;12.68;;;9.23;;
56122;SDS011;42426;46.104;19.656;2023-04-25T03:07:18;9.68;;;7.40;;
56122;SDS011;42426;46.104;19.656;2023-04-25T03:09:45;10.15;;;7.38;;
56122;SDS011;42426;46.104;19.656;2023-04-25T03:12:11;9.93;;;6.78;;
56122;SDS011;42426;46.104;19.656;2023-04-25T03:14:43;9.27;;;6.18;;
56122;SDS011;42426;46.104;19.656;2023-04-25T03:17:09;8.55;;;6.07;;
56122;SDS011;42426;46.104;19.656;2023-04-25T03:19:36;7.80;;;5.90;;
56122;SDS011;42426;46.104;19.656;2023-04-25T03:22:02;6.30;;;5.15;;
56122;SDS011;42426;46.104;19.656;2023-04-25T03:24:28;9.23;;;5.95;;
56122;SDS011;42426;46.104;19.656;2023-04-25T03:26:55;9.00;;;7.20;;
56122;SDS011;42426;46.104;19.656;2023-04-25T03:29:21;16.30;;;10.40;;
56122;SDS011;42426;46.104;19.656;2023-04-25T03:31:49;16.58;;;9.27;;
56122;SDS011;42426;46.104;19.656;2023-04-25T03:34:15;20.73;;;10.93;;
56122;SDS011;42426;46.104;19.656;2023-04-25T03:36:41;11.68;;;7.47;;
56122;SDS011;42426;46.104;19.656;2023-04-25T03:39:08;11.65;;;7.70;;
56122;SDS011;42426;46.104;19.656;2023-04-25T03:41:36;7.60;;;6.40;;
56122;SDS011;42426;46.104;19.656;2023-04-25T03:44:02;7.75;;;6.07;;
56122;SDS011;42426;46.104;19.656;2023-04-25T03:46:28;7.50;;;6.70;;
56122;SDS011;42426;46.104;19.656;2023-04-25T03:48:54;10.93;;;8.00;;
56122;SDS011;42426;46.104;19.656;2023-04-25T03:51:20;16.27;;;6.18;;
56122;SDS011;42426;46.104;19.656;2023-04-25T03:53:47;9.55;;;6.32;;
56122;SDS011;42426;46.104;19.656;2023-04-25T03:56:15;7.25;;;5.70;;
56122;SDS011;42426;46.104;19.656;2023-04-25T03:58:41;8.85;;;5.72;;
56122;SDS011;42426;46.104;19.656;2023-04-25T04:01:07;9.25;;;6.30;;
56122;SDS011;42426;46.104;19.656;2023-04-25T04:03:34;6.68;;;5.50;;
56122;SDS011;42426;46.104;19.656;2023-04-25T04:06:03;6.97;;;5.75;;
56122;SDS011;42426;46.104;19.656;2023-04-25T04:08:30;7.05;;;5.32;;
56122;SDS011;42426;46.104;19.656;2023-04-25T04:10:57;6.32;;;5.38;;
56122;SDS011;42426;46.104;19.656;2023-04-25T04:13:25;7.60;;;5.85;;
56122;SDS011;42426;46.104;19.656;2023-04-25T04:15:51;8.55;;;6.13;;
56122;SDS011;42426;46.104;19.656;2023-04-25T04:18:17;9.35;;;7.10;;
56122;SDS011;42426;46.104;19.656;2023-04-25T04:20:43;8.15;;;6.55;;
56122;SDS011;42426;46.104;19.656;2023-04-25T04:23:09;6.65;;;5.63;;
56122;SDS011;42426;46.104;19.656;2023-04-25T04:25:35;8.77;;;6.57;;
56122;SDS011;42426;46.104;19.656;2023-04-25T04:28:02;9.57;;;6.90;;
56122;SDS011;42426;46.104;19.656;2023-04-25T04:30:28;8.45;;;6.82;;
56122;SDS011;42426;46.104;19.656;2023-04-25T04:32:56;9.15;;;6.25;;
56122;SDS011;42426;46.104;19.656;2023-04-25T04:35:22;9.63;;;6.18;;
56122;SDS011;42426;46.104;19.656;2023-04-25T04:37:49;7.93;;;6.28;;
56122;SDS011;42426;46.104;19.656;2023-04-25T04:40:15;6.63;;;5.60;;
56122;SDS011;42426;46.104;19.656;2023-04-25T04:42:42;7.28;;;6.05;;
56122;SDS011;42426;46.104;19.656;2023-04-25T04:45:08;6.45;;;4.82;;
56122;SDS011;42426;46.104;19.656;2023-04-25T04:47:35;8.93;;;5.63;;
56122;SDS011;42426;46.104;19.656;2023-04-25T04:50:02;7.53;;;6.05;;
56122;SDS011;42426;46.104;19.656;2023-04-25T04:52:29;6.28;;;5.68;;
56122;SDS011;42426;46.104;19.656;2023-04-25T04:54:55;29.10;;;14.98;;
56122;SDS011;42426;46.104;19.656;2023-04-25T04:57:21;21.83;;;13.23;;
56122;SDS011;42426;46.104;19.656;2023-04-25T04:59:47;16.60;;;9.90;;
56122;SDS011;42426;46.104;19.656;2023-04-25T05:02:15;22.73;;;13.52;;
56122;SDS011;42426;46.104;19.656;2023-04-25T05:04:41;29.55;;;14.50;;
56122;SDS011;42426;46.104;19.656;2023-04-25T05:07:07;17.70;;;9.95;;
56122;SDS011;42426;46.104;19.656;2023-04-25T05:09:33;18.75;;;10.55;;
56122;SDS011;42426;46.104;19.656;2023-04-25T05:11:59;21.30;;;8.98;;
56122;SDS011;42426;46.104;19.656;2023-04-25T05:14:26;20.38;;;11.93;;
56122;SDS011;42426;46.104;19.656;2023-04-25T05:16:52;15.27;;;8.90;;
56122;SDS011;42426;46.104;19.656;2023-04-25T05:19:18;14.02;;;8.60;;
56122;SDS011;42426;46.104;19.656;2023-04-25T05:21:44;17.55;;;9.55;;
56122;SDS011;42426;46.104;19.656;2023-04-25T05:24:10;14.48;;;9.32;;
56122;SDS011;42426;46.104;19.656;2023-04-25T05:26:37;16.83;;;9.43;;
56122;SDS011;42426;46.104;19.656;2023-04-25T05:29:03;16.73;;;9.95;;
56122;SDS011;42426;46.104;19.656;2023-04-25T05:31:30;12.15;;;8.00;;
56122;SDS011;42426;46.104;19.656;2023-04-25T05:33:57;28.50;;;13.15;;
56122;SDS011;42426;46.104;19.656;2023-04-25T05:36:23;13.00;;;8.35;;
56122;SDS011;42426;46.104;19.656;2023-04-25T05:38:49;13.95;;;7.57;;
56122;SDS011;42426;46.104;19.656;2023-04-25T05:41:15;13.90;;;8.70;;
56122;SDS011;42426;46.104;19.656;2023-04-25T05:43:42;11.52;;;7.20;;
56122;SDS011;42426;46.104;19.656;2023-04-25T05:46:11;12.52;;;8.77;;
56122;SDS011;42426;46.104;19.656;2023-04-25T05:48:38;8.98;;;6.97;;
56122;SDS011;42426;46.104;19.656;2023-04-25T05:51:04;9.43;;;7.18;;
56122;SDS011;42426;46.104;19.656;2023-04-25T05:53:30;8.07;;;5.88;;
56122;SDS011;42426;46.104;19.656;2023-04-25T05:55:56;9.23;;;7.32;;
56122;SDS011;42426;46.104;19.656;2023-04-25T05:58:22;10.65;;;7.90;;
56122;SDS011;42426;46.104;19.656;2023-04-25T06:00:49;12.30;;;8.05;;
56122;SDS011;42426;46.104;19.656;2023-04-25T06:03:15;7.47;;;6.13;;
56122;SDS011;42426;46.104;19.656;2023-04-25T06:05:41;20.60;;;13.77;;
56122;SDS011;42426;46.104;19.656;2023-04-25T06:08:08;13.30;;;10.35;;
56122;SDS011;42426;46.104;19.656;2023-04-25T06:10:34;17.15;;;14.75;;
56122;SDS011;42426;46.104;19.656;2023-04-25T06:13:00;20.63;;;12.57;;
56122;SDS011;42426;46.104;19.656;2023-04-25T06:15:26;14.02;;;9.77;;
56122;SDS011;42426;46.104;19.656;2023-04-25T06:17:52;15.63;;;9.95;;
56122;SDS011;42426;46.104;19.656;2023-04-25T06:20:21;23.98;;;11.98;;
56122;SDS011;42426;46.104;19.656;2023-04-25T06:22:49;20.05;;;12.05;;
56122;SDS011;42426;46.104;19.656;2023-04-25T06:25:16;19.02;;;11.38;;
56122;SDS011;42426;46.104;19.656;2023-04-25T06:27:42;15.40;;;9.27;;
56122;SDS011;42426;46.104;19.656;2023-04-25T06:30:08;18.65;;;10.73;;
56122;SDS011;42426;46.104;19.656;2023-04-25T06:32:37;16.60;;;10.35;;
56122;SDS011;42426;46.104;19.656;2023-04-25T06:35:03;11.75;;;7.70;;
56122;SDS011;42426;46.104;19.656;2023-04-25T06:37:29;17.90;;;11.35;;
56122;SDS011;42426;46.104;19.656;2023-04-25T06:39:55;17.65;;;9.38;;
56122;SDS011;42426;46.104;19.656;2023-04-25T06:42:21;15.57;;;9.85;;
56122;SDS011;42426;46.104;19.656;2023-04-25T06:44:47;11.70;;;8.18;;
56122;SDS011;42426;46.104;19.656;2023-04-25T06:47:14;12.07;;;9.20;;
56122;SDS011;42426;46.104;19.656;2023-04-25T06:49:40;10.82;;;7.60;;
56122;SDS011;42426;46.104;19.656;2023-04-25T06:52:06;15.35;;;9.18;;
56122;SDS011;42426;46.104;19.656;2023-04-25T06:54:33;7.78;;;6.25;;
56122;SDS011;42426;46.104;19.656;2023-04-25T06:56:59;16.27;;;10.10;;
56122;SDS011;42426;46.104;19.656;2023-04-25T06:59:26;11.75;;;7.72;;
56122;SDS011;42426;46.104;19.656;2023-04-25T07:01:52;11.32;;;6.50;;
56122;SDS011;42426;46.104;19.656;2023-04-25T07:04:18;10.93;;;7.80;;
56122;SDS011;42426;46.104;19.656;2023-04-25T07:06:44;12.00;;;9.05;;
56122;SDS011;42426;46.104;19.656;2023-04-25T07:09:12;9.77;;;6.88;;
56122;SDS011;42426;46.104;19.656;2023-04-25T07:11:38;13.15;;;9.00;;
56122;SDS011;42426;46.104;19.656;2023-04-25T07:14:04;11.27;;;8.10;;
56122;SDS011;42426;46.104;19.656;2023-04-25T07:16:30;10.13;;;6.88;;
56122;SDS011;42426;46.104;19.656;2023-04-25T07:18:56;11.02;;;7.78;;
56122;SDS011;42426;46.104;19.656;2023-04-25T07:21:22;12.25;;;8.57;;
56122;SDS011;42426;46.104;19.656;2023-04-25T07:23:49;7.60;;;5.88;;
56122;SDS011;42426;46.104;19.656;2023-04-25T07:26:15;11.35;;;7.45;;
56122;SDS011;42426;46.104;19.656;2023-04-25T07:28:41;9.60;;;7.55;;
56122;SDS011;42426;46.104;19.656;2023-04-25T07:31:07;11.02;;;7.05;;
56122;SDS011;42426;46.104;19.656;2023-04-25T07:33:33;10.40;;;6.95;;
56122;SDS011;42426;46.104;19.656;2023-04-25T07:35:59;10.73;;;6.68;;
56122;SDS011;42426;46.104;19.656;2023-04-25T07:38:26;9.93;;;7.53;;
56122;SDS011;42426;46.104;19.656;2023-04-25T07:40:52;13.07;;;8.18;;
56122;SDS011;42426;46.104;19.656;2023-04-25T07:43:18;14.13;;;8.50;;
56122;SDS011;42426;46.104;19.656;2023-04-25T07:45:44;12.98;;;9.23;;
56122;SDS011;42426;46.104;19.656;2023-04-25T07:48:10;11.98;;;8.00;;
56122;SDS011;42426;46.104;19.656;2023-04-25T07:50:36;13.60;;;7.70;;
56122;SDS011;42426;46.104;19.656;2023-04-25T07:53:02;9.45;;;7.60;;
56122;SDS011;42426;46.104;19.656;2023-04-25T07:55:28;10.52;;;6.72;;
56122;SDS011;42426;46.104;19.656;2023-04-25T07:57:55;18.58;;;10.23;;
56122;SDS011;42426;46.104;19.656;2023-04-25T08:00:21;8.88;;;6.70;;
56122;SDS011;42426;46.104;19.656;2023-04-25T08:02:47;12.77;;;8.18;;
56122;SDS011;42426;46.104;19.656;2023-04-25T08:05:13;10.45;;;7.15;;
56122;SDS011;42426;46.104;19.656;2023-04-25T08:07:40;9.40;;;6.15;;
56122;SDS011;42426;46.104;19.656;2023-04-25T08:10:07;14.93;;;8.10;;
56122;SDS011;42426;46.104;19.656;2023-04-25T08:12:33;10.43;;;6.55;;
56122;SDS011;42426;46.104;19.656;2023-04-25T08:14:59;8.75;;;6.65;;
56122;SDS011;42426;46.104;19.656;2023-04-25T08:17:25;8.82;;;5.70;;
56122;SDS011;42426;46.104;19.656;2023-04-25T08:19:51;8.63;;;6.32;;
56122;SDS011;42426;46.104;19.656;2023-04-25T08:22:17;12.77;;;8.05;;
56122;SDS011;42426;46.104;19.656;2023-04-25T08:24:43;15.63;;;9.20;;
56122;SDS011;42426;46.104;19.656;2023-04-25T08:27:10;12.35;;;6.53;;
56122;SDS011;42426;46.104;19.656;2023-04-25T08:29:36;7.38;;;5.30;;
56122;SDS011;42426;46.104;19.656;2023-04-25T08:32:02;14.65;;;8.15;;
56122;SDS011;42426;46.104;19.656;2023-04-25T08:34:28;7.00;;;5.47;;
56122;SDS011;42426;46.104;19.656;2023-04-25T08:36:54;7.13;;;5.70;;
56122;SDS011;42426;46.104;19.656;2023-04-25T08:39:20;8.60;;;5.45;;
56122;SDS011;42426;46.104;19.656;2023-04-25T08:41:47;9.35;;;6.53;;
56122;SDS011;42426;46.104;19.656;2023-04-25T08:44:13;8.98;;;5.68;;
56122;SDS011;42426;46.104;19.656;2023-04-25T08:46:40;9.30;;;5.35;;
56122;SDS011;42426;46.104;19.656;2023-04-25T08:49:07;6.95;;;5.32;;
56122;SDS011;42426;46.104;19.656;2023-04-25T08:51:34;6.75;;;6.00;;
56122;SDS011;42426;46.104;19.656;2023-04-25T08:54:08;7.88;;;5.40;;
56122;SDS011;42426;46.104;19.656;2023-04-25T08:56:35;8.30;;;7.00;;
56122;SDS011;42426;46.104;19.656;2023-04-25T08:59:02;9.68;;;5.97;;
56122;SDS011;42426;46.104;19.656;2023-04-25T09:01:28;7.78;;;6.03;;
56122;SDS011;42426;46.104;19.656;2023-04-25T09:03:54;5.68;;;4.68;;
56122;SDS011;42426;46.104;19.656;2023-04-25T09:06:20;8.73;;;6.28;;
56122;SDS011;42426;46.104;19.656;2023-04-25T09:08:49;6.90;;;5.47;;
56122;SDS011;42426;46.104;19.656;2023-04-25T09:11:15;7.30;;;5.38;;
56122;SDS011;42426;46.104;19.656;2023-04-25T09:13:41;7.40;;;5.95;;
56122;SDS011;42426;46.104;19.656;2023-04-25T09:16:07;9.38;;;6.57;;
56122;SDS011;42426;46.104;19.656;2023-04-25T09:18:34;10.68;;;5.85;;
56122;SDS011;42426;46.104;19.656;2023-04-25T09:21:04;7.28;;;4.75;;
56122;SDS011;42426;46.104;19.656;2023-04-25T09:23:31;7.38;;;5.97;;
56122;SDS011;42426;46.104;19.656;2023-04-25T09:26:06;7.32;;;5.78;;
56122;SDS011;42426;46.104;19.656;2023-04-25T09:28:32;8.13;;;5.38;;
56122;SDS011;42426;46.104;19.656;2023-04-25T09:31:00;9.18;;;6.53;;
56122;SDS011;42426;46.104;19.656;2023-04-25T09:33:30;13.18;;;6.78;;
56122;SDS011;42426;46.104;19.656;2023-04-25T09:36:04;10.00;;;6.45;;
56122;SDS011;42426;46.104;19.656;2023-04-25T09:38:51;20.17;;;12.32;;
56122;SDS011;42426;46.104;19.656;2023-04-25T09:41:22;11.80;;;6.63;;
56122;SDS011;42426;46.104;19.656;2023-04-25T09:43:48;11.32;;;7.45;;
56122;SDS011;42426;46.104;19.656;2023-04-25T09:46:15;12.52;;;7.55;;
56122;SDS011;42426;46.104;19.656;2023-04-25T09:48:52;10.52;;;6.78;;
56122;SDS011;42426;46.104;19.656;2023-04-25T09:51:18;19.05;;;9.63;;
56122;SDS011;42426;46.104;19.656;2023-04-25T09:53:45;12.05;;;6.80;;
56122;SDS011;42426;46.104;19.656;2023-04-25T09:56:14;10.73;;;6.75;;
56122;SDS011;42426;46.104;19.656;2023-04-25T09:58:41;26.58;;;23.80;;
56122;SDS011;42426;46.104;19.656;2023-04-25T10:01:08;19.73;;;17.17;;
56122;SDS011;42426;46.104;19.656;2023-04-25T10:03:35;16.98;;;8.98;;
56122;SDS011;42426;46.104;19.656;2023-04-25T10:06:23;11.13;;;7.97;;
56122;SDS011;42426;46.104;19.656;2023-04-25T10:08:49;17.73;;;8.52;;
56122;SDS011;42426;46.104;19.656;2023-04-25T10:11:16;15.18;;;8.02;;
56122;SDS011;42426;46.104;19.656;2023-04-25T10:13:44;13.30;;;7.50;;
56122;SDS011;42426;46.104;19.656;2023-04-25T10:16:12;16.27;;;9.00;;
56122;SDS011;42426;46.104;19.656;2023-04-25T10:18:39;10.00;;;7.03;;
56122;SDS011;42426;46.104;19.656;2023-04-25T10:21:05;8.57;;;6.25;;
56122;SDS011;42426;46.104;19.656;2023-04-25T10:23:33;13.32;;;8.68;;
56122;SDS011;42426;46.104;19.656;2023-04-25T10:26:00;15.05;;;8.70;;
56122;SDS011;42426;46.104;19.656;2023-04-25T10:28:27;9.15;;;6.57;;
56122;SDS011;42426;46.104;19.656;2023-04-25T10:31:00;7.45;;;5.20;;
56122;SDS011;42426;46.104;19.656;2023-04-25T10:33:36;12.93;;;8.37;;
56122;SDS011;42426;46.104;19.656;2023-04-25T10:36:12;7.57;;;4.90;;
56122;SDS011;42426;46.104;19.656;2023-04-25T10:38:39;11.93;;;6.30;;
56122;SDS011;42426;46.104;19.656;2023-04-25T10:41:08;7.25;;;5.30;;
56122;SDS011;42426;46.104;19.656;2023-04-25T10:43:39;10.27;;;6.65;;
56122;SDS011;42426;46.104;19.656;2023-04-25T10:49:01;10.82;;;8.75;;
56122;SDS011;42426;46.104;19.656;2023-04-25T10:51:32;8.55;;;7.65;;
56122;SDS011;42426;46.104;19.656;2023-04-25T10:54:02;17.45;;;10.77;;
56122;SDS011;42426;46.104;19.656;2023-04-25T11:04:06;11.77;;;8.23;;
56122;SDS011;42426;46.104;19.656;2023-04-25T11:09:32;24.73;;;22.13;;
56122;SDS011;42426;46.104;19.656;2023-04-25T11:12:03;31.55;;;26.83;;
56122;SDS011;42426;46.104;19.656;2023-04-25T11:14:30;12.05;;;8.70;;
56122;SDS011;42426;46.104;19.656;2023-04-25T11:16:56;9.98;;;7.25;;
56122;SDS011;42426;46.104;19.656;2023-04-25T11:19:23;10.00;;;7.05;;
56122;SDS011;42426;46.104;19.656;2023-04-25T11:21:50;8.25;;;5.55;;
56122;SDS011;42426;46.104;19.656;2023-04-25T11:24:16;7.65;;;5.53;;
56122;SDS011;42426;46.104;19.656;2023-04-25T11:26:51;11.35;;;7.00;;
56122;SDS011;42426;46.104;19.656;2023-04-25T11:29:17;15.13;;;11.50;;
56122;SDS011;42426;46.104;19.656;2023-04-25T11:31:43;8.73;;;5.93;;
56122;SDS011;42426;46.104;19.656;2023-04-25T11:34:10;13.63;;;5.50;;
56122;SDS011;42426;46.104;19.656;2023-04-25T11:36:36;6.30;;;5.18;;
56122;SDS011;42426;46.104;19.656;2023-04-25T11:39:04;7.85;;;4.40;;
56122;SDS011;42426;46.104;19.656;2023-04-25T11:41:30;9.55;;;6.03;;
56122;SDS011;42426;46.104;19.656;2023-04-25T11:43:56;6.93;;;5.80;;
56122;SDS011;42426;46.104;19.656;2023-04-25T11:46:22;7.43;;;5.45;;
56122;SDS011;42426;46.104;19.656;2023-04-25T11:48:48;6.57;;;5.28;;
56122;SDS011;42426;46.104;19.656;2023-04-25T11:51:15;6.13;;;5.40;;
56122;SDS011;42426;46.104;19.656;2023-04-25T11:53:41;7.65;;;6.00;;
56122;SDS011;42426;46.104;19.656;2023-04-25T11:56:09;6.18;;;5.20;;
56122;SDS011;42426;46.104;19.656;2023-04-25T12:01:34;9.15;;;6.40;;
56122;SDS011;42426;46.104;19.656;2023-04-25T12:06:38;8.30;;;6.20;;
56122;SDS011;42426;46.104;19.656;2023-04-25T12:09:07;6.28;;;5.53;;
56122;SDS011;42426;46.104;19.656;2023-04-25T12:11:40;9.23;;;6.35;;
56122;SDS011;42426;46.104;19.656;2023-04-25T12:14:11;8.77;;;6.65;;
56122;SDS011;42426;46.104;19.656;2023-04-25T12:16:41;9.20;;;6.25;;
56122;SDS011;42426;46.104;19.656;2023-04-25T12:19:14;8.20;;;6.30;;
56122;SDS011;42426;46.104;19.656;2023-04-25T12:21:41;8.38;;;6.38;;
56122;SDS011;42426;46.104;19.656;2023-04-25T12:24:14;6.40;;;5.40;;
56122;SDS011;42426;46.104;19.656;2023-04-25T12:26:51;6.50;;;4.93;;
56122;SDS011;42426;46.104;19.656;2023-04-25T12:29:26;9.40;;;4.60;;
56122;SDS011;42426;46.104;19.656;2023-04-25T12:31:53;6.68;;;5.10;;
56122;SDS011;42426;46.104;19.656;2023-04-25T12:34:20;10.27;;;7.95;;
56122;SDS011;42426;46.104;19.656;2023-04-25T12:36:47;9.52;;;6.15;;
56122;SDS011;42426;46.104;19.656;2023-04-25T12:39:17;11.07;;;6.28;;
56122;SDS011;42426;46.104;19.656;2023-04-25T12:41:52;24.00;;;11.60;;
56122;SDS011;42426;46.104;19.656;2023-04-25T12:44:21;22.17;;;12.00;;
56122;SDS011;42426;46.104;19.656;2023-04-25T12:46:47;14.80;;;8.48;;
56122;SDS011;42426;46.104;19.656;2023-04-25T12:49:13;10.90;;;7.03;;
56122;SDS011;42426;46.104;19.656;2023-04-25T12:51:39;17.38;;;8.60;;
56122;SDS011;42426;46.104;19.656;2023-04-25T12:54:06;13.38;;;7.55;;
56122;SDS011;42426;46.104;19.656;2023-04-25T12:56:33;12.73;;;7.30;;
56122;SDS011;42426;46.104;19.656;2023-04-25T12:59:00;10.10;;;7.90;;
56122;SDS011;42426;46.104;19.656;2023-04-25T13:01:26;16.00;;;9.43;;
56122;SDS011;42426;46.104;19.656;2023-04-25T13:03:52;12.00;;;7.03;;
56122;SDS011;42426;46.104;19.656;2023-04-25T13:06:18;11.02;;;6.50;;
56122;SDS011;42426;46.104;19.656;2023-04-25T13:08:44;7.78;;;4.43;;
56122;SDS011;42426;46.104;19.656;2023-04-25T13:11:10;12.48;;;8.10;;
56122;SDS011;42426;46.104;19.656;2023-04-25T13:13:36;5.40;;;4.38;;
56122;SDS011;42426;46.104;19.656;2023-04-25T13:16:03;9.40;;;4.75;;
56122;SDS011;42426;46.104;19.656;2023-04-25T13:18:32;5.18;;;4.22;;
56122;SDS011;42426;46.104;19.656;2023-04-25T13:20:59;6.65;;;4.90;;
56122;SDS011;42426;46.104;19.656;2023-04-25T13:23:25;9.98;;;5.60;;
56122;SDS011;42426;46.104;19.656;2023-04-25T13:25:52;8.05;;;5.53;;
56122;SDS011;42426;46.104;19.656;2023-04-25T13:28:20;5.65;;;4.30;;
56122;SDS011;42426;46.104;19.656;2023-04-25T13:30:46;6.45;;;4.78;;
56122;SDS011;42426;46.104;19.656;2023-04-25T13:33:13;5.22;;;4.68;;
56122;SDS011;42426;46.104;19.656;2023-04-25T13:35:39;5.00;;;4.07;;
56122;SDS011;42426;46.104;19.656;2023-04-25T13:38:05;3.72;;;3.33;;
56122;SDS011;42426;46.104;19.656;2023-04-25T13:40:31;4.13;;;3.40;;
56122;SDS011;42426;46.104;19.656;2023-04-25T13:42:58;8.05;;;4.68;;
56122;SDS011;42426;46.104;19.656;2023-04-25T13:45:24;6.38;;;4.75;;
56122;SDS011;42426;46.104;19.656;2023-04-25T13:47:50;9.07;;;5.00;;
56122;SDS011;42426;46.104;19.656;2023-04-25T13:50:15;7.07;;;4.95;;
56122;SDS011;42426;46.104;19.656;2023-04-25T13:52:41;6.82;;;4.47;;
56122;SDS011;42426;46.104;19.656;2023-04-25T13:55:08;5.93;;;4.30;;
56122;SDS011;42426;46.104;19.656;2023-04-25T13:57:34;6.28;;;4.78;;
56122;SDS011;42426;46.104;19.656;2023-04-25T14:00:01;13.02;;;5.75;;
56122;SDS011;42426;46.104;19.656;2023-04-25T14:02:33;6.97;;;5.13;;
56122;SDS011;42426;46.104;19.656;2023-04-25T14:05:05;11.30;;;6.82;;
56122;SDS011;42426;46.104;19.656;2023-04-25T14:07:33;8.15;;;4.70;;
56122;SDS011;42426;46.104;19.656;2023-04-25T14:09:59;13.07;;;5.88;;
56122;SDS011;42426;46.104;19.656;2023-04-25T14:12:25;5.20;;;4.68;;
56122;SDS011;42426;46.104;19.656;2023-04-25T14:14:51;8.65;;;6.10;;
56122;SDS011;42426;46.104;19.656;2023-04-25T14:17:18;6.32;;;4.07;;
56122;SDS011;42426;46.104;19.656;2023-04-25T14:19:46;5.43;;;4.40;;
56122;SDS011;42426;46.104;19.656;2023-04-25T14:22:13;5.88;;;3.83;;
56122;SDS011;42426;46.104;19.656;2023-04-25T14:24:40;10.95;;;5.30;;
56122;SDS011;42426;46.104;19.656;2023-04-25T14:27:06;6.47;;;4.40;;
56122;SDS011;42426;46.104;19.656;2023-04-25T14:29:32;5.03;;;3.95;;
56122;SDS011;42426;46.104;19.656;2023-04-25T14:31:58;6.93;;;4.10;;
56122;SDS011;42426;46.104;19.656;2023-04-25T14:34:24;6.18;;;4.90;;
56122;SDS011;42426;46.104;19.656;2023-04-25T14:36:51;5.22;;;4.38;;
56122;SDS011;42426;46.104;19.656;2023-04-25T14:39:17;8.63;;;5.70;;
56122;SDS011;42426;46.104;19.656;2023-04-25T14:41:43;9.70;;;5.57;;
56122;SDS011;42426;46.104;19.656;2023-04-25T14:44:09;9.73;;;6.18;;